Time,TemperatureF,DewpointF,PressureIn,WindDirection,WindDirectionDegrees,WindSpeedMPH,WindSpeedGustMPH,Humidity,HourlyPrecipIn,Conditions,Clouds,dailyrainin,SoftwareType,DateUTC
2013-05-24 00:00:00,47.7,46.3,30.07,NNW,337,6.0,9.0,95,0.00,,,0.00,Wunderground v.1.15,2013-05-24 04:00:00,
2013-05-24 00:05:00,47.1,45.7,30.08,NW,323,7.0,9.0,95,0.00,,,0.00,Wunderground v.1.15,2013-05-24 04:05:00,
2013-05-24 00:10:00,46.7,45.3,30.08,NNW,346,8.0,8.0,95,0.00,,,0.00,Wunderground v.1.15,2013-05-24 04:10:00,
2013-05-24 00:15:00,46.7,45.3,30.08,NNW,343,7.0,8.0,95,0.00,,,0.00,Wunderground v.1.15,2013-05-24 04:15:00,
2013-05-24 00:20:00,46.8,45.7,30.08,NNE,26,6.0,7.0,96,0.00,,,0.00,Wunderground v.1.15,2013-05-24 04:20:00,
2013-05-24 00:25:00,46.7,45.6,30.08,North,355,6.0,7.0,96,0.00,,,0.00,Wunderground v.1.15,2013-05-24 04:25:00,
2013-05-24 00:35:00,45.9,44.5,30.08,NNW,342,8.0,9.0,95,0.00,,,0.00,Wunderground v.1.15,2013-05-24 04:35:00,
2013-05-24 00:40:00,45.9,44.5,30.09,NNW,333,7.0,11.0,95,0.00,,,0.00,Wunderground v.1.15,2013-05-24 04:40:00,
2013-05-24 00:45:00,45.6,44.5,30.09,North,351,7.0,11.0,96,0.00,,,0.00,Wunderground v.1.15,2013-05-24 04:45:00,
2013-05-24 00:50:00,45.3,44.0,30.10,NNW,327,7.0,7.0,95,0.00,,,0.00,Wunderground v.1.15,2013-05-24 04:50:00,
2013-05-24 00:55:00,45.2,44.1,30.10,NNW,333,7.0,7.0,96,0.00,,,0.00,Wunderground v.1.15,2013-05-24 04:55:00,
2013-05-24 01:05:00,44.8,43.7,30.10,NNW,331,8.0,11.0,96,0.00,,,0.00,Wunderground v.1.15,2013-05-24 05:05:00,
2013-05-24 01:10:00,44.6,43.5,30.10,NW,325,8.0,8.0,96,0.00,,,0.00,Wunderground v.1.15,2013-05-24 05:10:00,
2013-05-24 01:15:00,44.3,43.2,30.10,NNE,13,9.0,14.0,96,0.00,,,0.00,Wunderground v.1.15,2013-05-24 05:15:00,
2013-05-24 01:20:00,44.1,43.0,30.10,NW,320,9.0,14.0,96,0.00,,,0.00,Wunderground v.1.15,2013-05-24 05:20:00,
2013-05-24 01:25:00,43.9,42.8,30.10,NNW,338,9.0,14.0,96,0.00,,,0.00,Wunderground v.1.15,2013-05-24 05:25:00,
2013-05-24 01:30:00,43.8,42.7,30.10,NW,315,8.0,8.0,96,0.00,,,0.00,Wunderground v.1.15,2013-05-24 05:30:00,
2013-05-24 01:35:00,43.6,42.5,30.11,NW,323,8.0,14.0,96,0.00,,,0.00,Wunderground v.1.15,2013-05-24 05:35:00,
2013-05-24 01:40:00,43.2,42.1,30.11,NW,325,9.0,14.0,96,0.00,,,0.00,Wunderground v.1.15,2013-05-24 05:40:00,
2013-05-24 01:45:00,43.2,42.1,30.11,NNW,333,8.0,14.0,96,0.00,,,0.00,Wunderground v.1.15,2013-05-24 05:45:00,
2013-05-24 01:50:00,42.9,41.8,30.12,NNW,341,8.0,8.0,96,0.00,,,0.00,Wunderground v.1.15,2013-05-24 05:50:00,
2013-05-24 01:55:00,42.8,41.7,30.12,WNW,300,8.0,9.0,96,0.00,,,0.00,Wunderground v.1.15,2013-05-24 05:55:00,
2013-05-24 02:05:00,42.4,41.3,30.13,WNW,300,9.0,14.0,96,0.00,,,0.00,Wunderground v.1.15,2013-05-24 06:05:00,
2013-05-24 02:10:00,42.4,41.3,30.13,NW,323,9.0,9.0,96,0.00,,,0.00,Wunderground v.1.15,2013-05-24 06:10:00,
2013-05-24 02:15:00,42.3,41.2,30.13,NW,326,8.0,14.0,96,0.00,,,0.00,Wunderground v.1.15,2013-05-24 06:15:00,
2013-05-24 02:20:00,42.2,41.1,30.13,North,360,8.0,14.0,96,0.00,,,0.01,Wunderground v.1.15,2013-05-24 06:20:00,
2013-05-24 02:25:00,42.2,41.1,30.13,NW,319,8.0,16.0,96,0.00,,,0.01,Wunderground v.1.15,2013-05-24 06:25:00,
2013-05-24 02:30:00,41.9,40.8,30.13,NNW,329,8.0,8.0,96,0.00,,,0.01,Wunderground v.1.15,2013-05-24 06:30:00,
2013-05-24 02:40:00,41.8,40.7,30.13,NW,321,7.0,14.0,96,0.00,,,0.01,Wunderground v.1.15,2013-05-24 06:40:00,
2013-05-24 02:45:00,41.5,40.4,30.13,NNW,331,7.0,14.0,96,0.00,,,0.01,Wunderground v.1.15,2013-05-24 06:45:00,
2013-05-24 02:50:00,41.4,40.3,30.13,NW,305,8.0,8.0,96,0.00,,,0.01,Wunderground v.1.15,2013-05-24 06:50:00,
2013-05-24 02:55:00,41.4,40.3,30.13,NNW,327,8.0,14.0,96,0.00,,,0.02,Wunderground v.1.15,2013-05-24 06:55:00,
2013-05-24 03:05:00,41.3,40.2,30.14,WNW,302,7.0,8.0,96,0.00,,,0.02,Wunderground v.1.15,2013-05-24 07:05:00,
2013-05-24 03:10:00,41.1,40.0,30.14,WNW,286,7.0,14.0,96,0.00,,,0.02,Wunderground v.1.15,2013-05-24 07:10:00,
2013-05-24 03:15:00,41.0,39.9,30.14,WNW,302,8.0,14.0,96,0.00,,,0.02,Wunderground v.1.15,2013-05-24 07:15:00,
2013-05-24 03:20:00,40.8,39.7,30.14,NW,325,9.0,9.0,96,0.00,,,0.02,Wunderground v.1.15,2013-05-24 07:20:00,
2013-05-24 03:25:00,40.8,39.7,30.14,NW,317,8.0,14.0,96,0.00,,,0.03,Wunderground v.1.15,2013-05-24 07:25:00,
2013-05-24 03:30:00,40.8,39.7,30.14,NW,313,7.0,7.0,96,0.00,,,0.03,Wunderground v.1.15,2013-05-24 07:30:00,
2013-05-24 03:35:00,40.7,39.6,30.14,WNW,302,7.0,8.0,96,0.00,,,0.03,Wunderground v.1.15,2013-05-24 07:35:00,
2013-05-24 03:45:00,40.6,39.5,30.15,NNW,330,7.0,14.0,96,0.00,,,0.03,Wunderground v.1.15,2013-05-24 07:45:00,
2013-05-24 03:50:00,40.7,39.6,30.15,NW,317,5.0,14.0,96,0.00,,,0.04,Wunderground v.1.15,2013-05-24 07:50:00,
2013-05-24 03:55:00,40.5,39.4,30.16,WNW,302,6.0,14.0,96,0.00,,,0.04,Wunderground v.1.15,2013-05-24 07:55:00,
2013-05-24 04:00:00,40.5,39.4,30.16,NW,321,7.0,14.0,96,0.00,,,0.04,Wunderground v.1.15,2013-05-24 08:00:00,
2013-05-24 04:05:00,40.4,39.4,30.16,NW,324,8.0,14.0,96,0.00,,,0.04,Wunderground v.1.15,2013-05-24 08:05:00,
2013-05-24 04:10:00,40.5,39.4,30.16,WNW,299,7.0,14.0,96,0.00,,,0.05,Wunderground v.1.15,2013-05-24 08:10:00,
2013-05-24 04:20:00,40.5,39.4,30.16,NNE,18,6.0,14.0,96,0.00,,,0.05,Wunderground v.1.15,2013-05-24 08:20:00,
2013-05-24 04:25:00,40.3,39.3,30.16,NW,326,6.0,14.0,96,0.00,,,0.05,Wunderground v.1.15,2013-05-24 08:25:00,
2013-05-24 04:30:00,40.2,39.2,30.17,NW,326,7.0,14.0,96,0.04,,,0.06,Wunderground v.1.15,2013-05-24 08:30:00,
2013-05-24 04:35:00,40.1,39.1,30.17,NNW,345,8.0,14.0,96,0.04,,,0.06,Wunderground v.1.15,2013-05-24 08:35:00,
2013-05-24 04:40:00,40.1,39.1,30.17,NNW,327,7.0,7.0,96,0.04,,,0.06,Wunderground v.1.15,2013-05-24 08:40:00,
2013-05-24 04:50:00,40.1,39.1,30.18,NW,318,7.0,14.0,96,0.00,,,0.06,Wunderground v.1.15,2013-05-24 08:50:00,
2013-05-24 04:55:00,39.9,38.9,30.18,NW,324,8.0,14.0,96,0.00,,,0.06,Wunderground v.1.15,2013-05-24 08:55:00,
2013-05-24 05:00:00,40.0,39.0,30.18,NNW,330,7.0,14.0,96,0.00,,,0.06,Wunderground v.1.15,2013-05-24 09:00:00,
2013-05-24 05:05:00,39.8,38.8,30.18,NNW,327,8.0,14.0,96,0.00,,,0.06,Wunderground v.1.15,2013-05-24 09:05:00,
2013-05-24 05:10:00,39.8,38.8,30.18,WNW,284,9.0,9.0,96,0.00,,,0.06,Wunderground v.1.15,2013-05-24 09:10:00,
2013-05-24 05:15:00,39.9,38.9,30.18,NW,317,8.0,14.0,96,0.00,,,0.06,Wunderground v.1.15,2013-05-24 09:15:00,
2013-05-24 05:25:00,39.8,38.8,30.19,NW,317,7.0,7.0,96,0.00,,,0.07,Wunderground v.1.15,2013-05-24 09:25:00,
2013-05-24 05:30:00,39.7,38.7,30.19,NW,319,8.0,14.0,96,0.00,,,0.07,Wunderground v.1.15,2013-05-24 09:30:00,
2013-05-24 05:35:00,39.8,38.8,30.19,NNW,327,8.0,14.0,96,0.00,,,0.07,Wunderground v.1.15,2013-05-24 09:35:00,
2013-05-24 05:40:00,39.8,38.8,30.20,NNW,330,9.0,14.0,96,0.00,,,0.07,Wunderground v.1.15,2013-05-24 09:40:00,
2013-05-24 05:45:00,39.7,38.7,30.20,NW,319,9.0,14.0,96,0.00,,,0.07,Wunderground v.1.15,2013-05-24 09:45:00,
2013-05-24 05:55:00,39.7,38.7,30.20,WNW,296,8.0,14.0,96,0.00,,,0.07,Wunderground v.1.15,2013-05-24 09:55:00,
2013-05-24 06:00:00,39.6,38.6,30.21,NNW,345,7.0,11.0,96,0.00,,,0.07,Wunderground v.1.15,2013-05-24 10:00:00,
2013-05-24 06:10:00,39.5,38.5,30.22,NW,309,8.0,8.0,96,0.00,,,0.07,Wunderground v.1.15,2013-05-24 10:10:00,
2013-05-24 06:15:00,39.5,38.5,30.22,NW,315,8.0,9.0,96,0.00,,,0.07,Wunderground v.1.15,2013-05-24 10:15:00,
2013-05-24 06:20:00,39.3,38.3,30.22,WNW,296,9.0,9.0,96,0.00,,,0.07,Wunderground v.1.15,2013-05-24 10:20:00,
2013-05-24 06:30:00,39.2,38.2,30.22,North,355,9.0,11.0,96,0.00,,,0.07,Wunderground v.1.15,2013-05-24 10:30:00,
2013-05-24 06:35:00,39.2,38.2,30.22,NNW,346,8.0,11.0,96,0.00,,,0.07,Wunderground v.1.15,2013-05-24 10:35:00,
2013-05-24 06:40:00,39.2,38.2,30.23,NW,313,9.0,9.0,96,0.00,,,0.07,Wunderground v.1.15,2013-05-24 10:40:00,
2013-05-24 06:45:00,39.2,38.2,30.23,NW,320,8.0,9.0,96,0.00,,,0.07,Wunderground v.1.15,2013-05-24 10:45:00,
2013-05-24 06:50:00,39.2,38.2,30.24,NW,322,8.0,12.0,96,0.00,,,0.07,Wunderground v.1.15,2013-05-24 10:50:00,
2013-05-24 06:55:00,38.9,37.9,30.24,NW,309,9.0,12.0,96,0.00,,,0.07,Wunderground v.1.15,2013-05-24 10:55:00,
2013-05-24 07:00:00,38.9,37.9,30.24,NW,306,10.0,12.0,96,0.00,,,0.07,Wunderground v.1.15,2013-05-24 11:00:00,
2013-05-24 07:05:00,39.0,38.0,30.24,NW,322,8.0,16.0,96,0.00,,,0.07,Wunderground v.1.15,2013-05-24 11:05:00,
2013-05-24 07:15:00,38.5,37.5,30.25,NNW,335,8.0,16.0,96,0.00,,,0.08,Wunderground v.1.15,2013-05-24 11:15:00,
2013-05-24 07:20:00,38.2,36.9,30.25,NW,304,10.0,16.0,95,0.00,,,0.08,Wunderground v.1.15,2013-05-24 11:20:00,
2013-05-24 07:25:00,38.0,37.0,30.25,NW,313,10.0,16.0,96,0.00,,,0.08,Wunderground v.1.15,2013-05-24 11:25:00,
2013-05-24 07:30:00,38.1,37.1,30.25,NNW,329,9.0,16.0,96,0.00,,,0.08,Wunderground v.1.15,2013-05-24 11:30:00,
2013-05-24 07:35:00,38.0,37.0,30.26,NNW,329,9.0,16.0,96,0.00,,,0.08,Wunderground v.1.15,2013-05-24 11:35:00,
2013-05-24 07:40:00,38.0,37.0,30.26,NW,325,9.0,9.0,96,0.00,,,0.08,Wunderground v.1.15,2013-05-24 11:40:00,
2013-05-24 07:45:00,38.0,37.0,30.26,NNW,339,9.0,16.0,96,0.00,,,0.08,Wunderground v.1.15,2013-05-24 11:45:00,
2013-05-24 07:50:00,37.9,36.9,30.27,NW,326,9.0,9.0,96,0.00,,,0.08,Wunderground v.1.15,2013-05-24 11:50:00,
2013-05-24 07:55:00,37.8,36.8,30.28,NW,307,10.0,10.0,96,0.00,,,0.08,Wunderground v.1.15,2013-05-24 11:55:00,
2013-05-24 08:05:00,37.7,36.7,30.28,NW,322,10.0,16.0,96,0.00,,,0.08,Wunderground v.1.15,2013-05-24 12:05:00,
2013-05-24 08:10:00,37.7,36.7,30.28,NNW,329,10.0,16.0,96,0.00,,,0.08,Wunderground v.1.15,2013-05-24 12:10:00,
2013-05-24 08:15:00,37.8,36.8,30.27,NW,309,9.0,16.0,96,0.00,,,0.08,Wunderground v.1.15,2013-05-24 12:15:00,
2013-05-24 08:20:00,37.9,36.9,30.28,NW,325,9.0,16.0,96,0.00,,,0.08,Wunderground v.1.15,2013-05-24 12:20:00,
2013-05-24 08:25:00,37.9,36.6,30.28,NNW,336,8.0,16.0,95,0.00,,,0.08,Wunderground v.1.15,2013-05-24 12:25:00,
2013-05-24 08:35:00,38.2,37.2,30.28,NNW,331,7.0,16.0,96,0.00,,,0.08,Wunderground v.1.15,2013-05-24 12:35:00,
2013-05-24 08:40:00,38.0,36.7,30.28,NW,309,8.0,8.0,95,0.00,,,0.08,Wunderground v.1.15,2013-05-24 12:40:00,
2013-05-24 08:45:00,37.7,36.4,30.29,NNW,328,8.0,10.0,95,0.00,,,0.09,Wunderground v.1.15,2013-05-24 12:45:00,
2013-05-24 08:50:00,37.7,36.7,30.29,NW,317,9.0,16.0,96,0.00,,,0.09,Wunderground v.1.15,2013-05-24 12:50:00,
2013-05-24 08:55:00,37.6,36.6,30.29,North,355,10.0,16.0,96,0.00,,,0.09,Wunderground v.1.15,2013-05-24 12:55:00,
2013-05-24 09:00:00,37.9,36.9,30.29,NW,322,10.0,10.0,96,0.00,,,0.09,Wunderground v.1.15,2013-05-24 13:00:00,
2013-05-24 09:10:00,38.5,37.5,30.30,NNW,329,8.0,8.0,96,0.00,,,0.09,Wunderground v.1.15,2013-05-24 13:10:00,
2013-05-24 09:15:00,38.2,36.9,30.30,NW,319,8.0,16.0,95,0.00,,,0.09,Wunderground v.1.15,2013-05-24 13:15:00,
2013-05-24 09:20:00,38.1,36.8,30.30,North,350,8.0,16.0,95,0.00,,,0.09,Wunderground v.1.15,2013-05-24 13:20:00,
2013-05-24 09:25:00,38.0,36.7,30.30,NNW,339,8.0,16.0,95,0.00,,,0.10,Wunderground v.1.15,2013-05-24 13:25:00,
2013-05-24 09:30:00,37.8,36.5,30.31,NW,323,10.0,16.0,95,0.00,,,0.10,Wunderground v.1.15,2013-05-24 13:30:00,
2013-05-24 09:40:00,38.5,37.2,30.31,NNW,341,7.0,16.0,95,0.00,,,0.10,Wunderground v.1.15,2013-05-24 13:40:00,
2013-05-24 09:45:00,38.1,36.8,30.31,NNW,333,8.0,16.0,95,0.00,,,0.10,Wunderground v.1.15,2013-05-24 13:45:00,
2013-05-24 09:50:00,38.2,36.9,30.32,NW,321,9.0,9.0,95,0.00,,,0.10,Wunderground v.1.15,2013-05-24 13:50:00,
2013-05-24 09:55:00,38.0,36.7,30.32,NNW,339,9.0,16.0,95,0.00,,,0.10,Wunderground v.1.15,2013-05-24 13:55:00,
2013-05-24 10:00:00,38.2,36.9,30.32,NNW,336,9.0,9.0,95,0.00,,,0.10,Wunderground v.1.15,2013-05-24 14:00:00,
2013-05-24 10:05:00,38.4,37.1,30.32,NW,313,8.0,16.0,95,0.00,,,0.11,Wunderground v.1.15,2013-05-24 14:05:00,
2013-05-24 10:15:00,38.6,37.3,30.32,NNW,333,8.0,11.0,95,0.00,,,0.11,Wunderground v.1.15,2013-05-24 14:15:00,
2013-05-24 10:20:00,38.4,37.1,30.33,NW,315,8.0,16.0,95,0.00,,,0.11,Wunderground v.1.15,2013-05-24 14:20:00,
2013-05-24 10:25:00,38.1,36.5,30.33,North,360,10.0,17.0,94,0.00,,,0.11,Wunderground v.1.15,2013-05-24 14:25:00,
2013-05-24 10:30:00,38.3,37.0,30.33,NW,319,11.0,11.0,95,0.00,,,0.11,Wunderground v.1.15,2013-05-24 14:30:00,
2013-05-24 10:35:00,38.4,37.1,30.33,NW,321,9.0,16.0,95,0.00,,,0.11,Wunderground v.1.15,2013-05-24 14:35:00,
2013-05-24 10:45:00,38.3,36.7,30.33,NW,318,11.0,16.0,94,0.00,,,0.11,Wunderground v.1.15,2013-05-24 14:45:00,
2013-05-24 10:50:00,38.6,37.0,30.33,NNW,329,10.0,10.0,94,0.00,,,0.11,Wunderground v.1.15,2013-05-24 14:50:00,
2013-05-24 10:55:00,38.9,37.6,30.33,NNW,341,9.0,16.0,95,0.00,,,0.11,Wunderground v.1.15,2013-05-24 14:55:00,
2013-05-24 11:00:00,38.7,37.1,30.34,NW,325,9.0,16.0,94,0.00,,,0.11,Wunderground v.1.15,2013-05-24 15:00:00,
2013-05-24 11:05:00,38.5,36.9,30.34,NW,321,9.0,16.0,94,0.00,,,0.11,Wunderground v.1.15,2013-05-24 15:05:00,
2013-05-24 11:10:00,38.7,37.4,30.34,NNE,28,9.0,9.0,95,0.00,,,0.11,Wunderground v.1.15,2013-05-24 15:10:00,
2013-05-24 11:15:00,38.7,37.1,30.34,NW,308,9.0,16.0,94,0.00,,,0.11,Wunderground v.1.15,2013-05-24 15:15:00,
2013-05-24 11:20:00,38.8,37.2,30.35,NNW,327,11.0,11.0,94,0.00,,,0.11,Wunderground v.1.15,2013-05-24 15:20:00,
2013-05-24 11:25:00,39.4,38.1,30.35,NNW,342,9.0,16.0,95,0.00,,,0.11,Wunderground v.1.15,2013-05-24 15:25:00,
2013-05-24 11:30:00,39.3,37.7,30.35,NW,322,8.0,16.0,94,0.00,,,0.11,Wunderground v.1.15,2013-05-24 15:30:00,
2013-05-24 11:35:00,39.2,37.6,30.35,NW,312,9.0,16.0,94,0.00,,,0.11,Wunderground v.1.15,2013-05-24 15:35:00,
2013-05-24 11:40:00,39.1,37.5,30.35,NW,317,9.0,16.0,94,0.00,,,0.11,Wunderground v.1.15,2013-05-24 15:40:00,
2013-05-24 12:05:00,39.3,37.7,30.36,NW,315,8.0,14.0,94,0.00,,,0.11,Wunderground v.1.15,2013-05-24 16:05:00,
2013-05-24 12:10:00,39.1,37.5,30.36,NW,322,9.0,14.0,94,0.00,,,0.11,Wunderground v.1.15,2013-05-24 16:10:00,
2013-05-24 12:15:00,39.0,37.4,30.36,NW,317,10.0,14.0,94,0.00,,,0.11,Wunderground v.1.15,2013-05-24 16:15:00,
2013-05-24 12:20:00,39.3,37.7,30.36,NW,315,10.0,10.0,94,0.00,,,0.11,Wunderground v.1.15,2013-05-24 16:20:00,
2013-05-24 12:30:00,39.2,37.6,30.37,NW,311,9.0,14.0,94,0.00,,,0.11,Wunderground v.1.15,2013-05-24 16:30:00,
2013-05-24 12:35:00,39.0,37.4,30.37,NNW,327,10.0,14.0,94,0.00,,,0.11,Wunderground v.1.15,2013-05-24 16:35:00,
2013-05-24 12:40:00,39.0,37.4,30.37,NNW,331,11.0,11.0,94,0.00,,,0.11,Wunderground v.1.15,2013-05-24 16:40:00,
2013-05-24 12:45:00,39.3,37.7,30.37,NNW,347,10.0,11.0,94,0.00,,,0.11,Wunderground v.1.15,2013-05-24 16:45:00,
2013-05-24 12:50:00,39.5,38.2,30.37,NW,309,8.0,12.0,95,0.00,,,0.11,Wunderground v.1.15,2013-05-24 16:50:00,
2013-05-24 13:00:00,39.2,37.6,30.38,NNW,341,9.0,9.0,94,0.00,,,0.12,Wunderground v.1.15,2013-05-24 17:00:00,
2013-05-24 13:05:00,39.4,38.1,30.37,NW,319,9.0,12.0,95,0.00,,,0.12,Wunderground v.1.15,2013-05-24 17:05:00,
2013-05-24 13:10:00,39.3,38.0,30.37,NNW,331,9.0,9.0,95,0.00,,,0.12,Wunderground v.1.15,2013-05-24 17:10:00,
2013-05-24 13:15:00,39.2,37.6,30.37,North,350,10.0,10.0,94,0.00,,,0.12,Wunderground v.1.15,2013-05-24 17:15:00,
2013-05-24 13:20:00,39.5,38.2,30.38,NW,318,9.0,20.0,95,0.00,,,0.12,Wunderground v.1.15,2013-05-24 17:20:00,
2013-05-24 13:25:00,39.8,38.5,30.38,NW,311,7.0,20.0,95,0.00,,,0.12,Wunderground v.1.15,2013-05-24 17:25:00,
2013-05-24 13:35:00,39.5,38.2,30.38,NW,313,9.0,20.0,95,0.00,,,0.12,Wunderground v.1.15,2013-05-24 17:35:00,
2013-05-24 13:40:00,39.6,38.3,30.38,NW,313,9.0,9.0,95,0.00,,,0.12,Wunderground v.1.15,2013-05-24 17:40:00,
2013-05-24 13:45:00,39.7,38.4,30.38,NW,311,8.0,20.0,95,0.00,,,0.12,Wunderground v.1.15,2013-05-24 17:45:00,
2013-05-24 13:50:00,39.5,38.2,30.39,NW,308,7.0,20.0,95,0.00,,,0.13,Wunderground v.1.15,2013-05-24 17:50:00,
2013-05-24 13:55:00,39.2,37.6,30.39,NNW,346,10.0,20.0,94,0.00,,,0.13,Wunderground v.1.15,2013-05-24 17:55:00,
2013-05-24 14:05:00,39.6,38.3,30.38,NNW,329,9.0,20.0,95,0.00,,,0.13,Wunderground v.1.15,2013-05-24 18:05:00,
2013-05-24 14:10:00,39.7,38.4,30.39,NW,308,10.0,10.0,95,0.00,,,0.13,Wunderground v.1.15,2013-05-24 18:10:00,
2013-05-24 14:15:00,40.1,38.8,30.39,WNW,293,9.0,11.0,95,0.00,,,0.13,Wunderground v.1.15,2013-05-24 18:15:00,
2013-05-24 14:20:00,40.0,38.7,30.39,NW,319,8.0,20.0,95,0.00,,,0.13,Wunderground v.1.15,2013-05-24 18:20:00,
2013-05-24 14:25:00,39.7,38.1,30.39,NNW,328,9.0,20.0,94,0.00,,,0.13,Wunderground v.1.15,2013-05-24 18:25:00,
2013-05-24 14:30:00,39.8,38.2,30.39,WNW,288,10.0,10.0,94,0.00,,,0.13,Wunderground v.1.15,2013-05-24 18:30:00,
2013-05-24 14:35:00,40.1,38.8,30.39,NW,306,10.0,20.0,95,0.00,,,0.13,Wunderground v.1.15,2013-05-24 18:35:00,
2013-05-24 14:40:00,40.2,38.6,30.40,NW,325,9.0,9.0,94,0.00,,,0.13,Wunderground v.1.15,2013-05-24 18:40:00,
2013-05-24 14:45:00,39.7,38.1,30.40,NW,307,8.0,20.0,94,0.00,,,0.13,Wunderground v.1.15,2013-05-24 18:45:00,
2013-05-24 14:50:00,39.2,37.6,30.40,NW,314,9.0,20.0,94,0.00,,,0.13,Wunderground v.1.15,2013-05-24 18:50:00,
2013-05-24 14:55:00,39.2,37.6,30.40,WNW,303,10.0,20.0,94,0.00,,,0.13,Wunderground v.1.15,2013-05-24 18:55:00,
2013-05-24 15:00:00,39.3,37.7,30.40,NW,311,8.0,8.0,94,0.00,,,0.13,Wunderground v.1.15,2013-05-24 19:00:00,
2013-05-24 15:10:00,39.4,37.8,30.41,NW,323,8.0,8.0,94,0.00,,,0.13,Wunderground v.1.15,2013-05-24 19:10:00,
2013-05-24 15:15:00,39.4,37.8,30.40,WNW,295,7.0,10.0,94,0.00,,,0.13,Wunderground v.1.15,2013-05-24 19:15:00,
2013-05-24 15:20:00,39.6,38.0,30.41,NNW,332,7.0,20.0,94,0.00,,,0.13,Wunderground v.1.15,2013-05-24 19:20:00,
2013-05-24 15:25:00,39.6,37.7,30.41,NW,309,8.0,20.0,93,0.00,,,0.13,Wunderground v.1.15,2013-05-24 19:25:00,
2013-05-24 15:30:00,39.8,37.9,30.40,WNW,298,8.0,20.0,93,0.00,,,0.13,Wunderground v.1.15,2013-05-24 19:30:00,
2013-05-24 15:40:00,40.1,38.2,30.41,WNW,285,8.0,20.0,93,0.00,,,0.13,Wunderground v.1.15,2013-05-24 19:40:00,
2013-05-24 15:45:00,40.3,38.2,30.41,NW,308,7.0,20.0,92,0.00,,,0.13,Wunderground v.1.15,2013-05-24 19:45:00,
2013-05-24 15:50:00,40.4,38.3,30.41,NW,319,7.0,20.0,92,0.00,,,0.13,Wunderground v.1.15,2013-05-24 19:50:00,
2013-05-24 15:55:00,40.5,38.4,30.41,WNW,302,7.0,20.0,92,0.00,,,0.13,Wunderground v.1.15,2013-05-24 19:55:00,
2013-05-24 16:00:00,40.6,38.2,30.41,NNW,340,7.0,7.0,91,0.00,,,0.13,Wunderground v.1.15,2013-05-24 20:00:00,
2013-05-24 16:05:00,40.9,38.5,30.41,NW,306,7.0,20.0,91,0.00,,,0.13,Wunderground v.1.15,2013-05-24 20:05:00,
2013-05-24 16:15:00,41.0,38.3,30.41,WNW,303,7.0,20.0,90,0.00,,,0.13,Wunderground v.1.15,2013-05-24 20:15:00,
2013-05-24 16:20:00,41.1,38.4,30.41,NW,321,7.0,7.0,90,0.00,,,0.13,Wunderground v.1.15,2013-05-24 20:20:00,
2013-05-24 16:25:00,41.2,38.2,30.41,WNW,297,6.0,12.0,89,0.00,,,0.13,Wunderground v.1.15,2013-05-24 20:25:00,
2013-05-24 16:30:00,41.4,38.1,30.41,WNW,294,8.0,8.0,88,0.00,,,0.13,Wunderground v.1.15,2013-05-24 20:30:00,
2013-05-24 16:35:00,41.4,38.1,30.41,NW,308,7.0,20.0,88,0.00,,,0.13,Wunderground v.1.15,2013-05-24 20:35:00,
2013-05-24 16:45:00,41.7,38.1,30.42,NW,306,6.0,10.0,87,0.00,,,0.13,Wunderground v.1.15,2013-05-24 20:45:00,
2013-05-24 16:50:00,41.8,38.5,30.41,NW,312,7.0,20.0,88,0.00,,,0.13,Wunderground v.1.15,2013-05-24 20:50:00,
2013-05-24 16:55:00,42.0,38.7,30.41,NW,315,7.0,20.0,88,0.00,,,0.13,Wunderground v.1.15,2013-05-24 20:55:00,
2013-05-24 17:00:00,42.2,38.9,30.42,NW,318,6.0,20.0,88,0.00,,,0.13,Wunderground v.1.15,2013-05-24 21:00:00,
2013-05-24 17:05:00,42.4,39.1,30.42,NW,313,5.0,20.0,88,0.00,,,0.13,Wunderground v.1.15,2013-05-24 21:05:00,
2013-05-24 17:10:00,42.5,39.2,30.42,NW,310,4.0,4.0,88,0.00,,,0.13,Wunderground v.1.15,2013-05-24 21:10:00,
2013-05-24 17:20:00,42.8,39.2,30.42,NW,319,5.0,20.0,87,0.00,,,0.13,Wunderground v.1.15,2013-05-24 21:20:00,
2013-05-24 17:25:00,42.8,39.2,30.42,NW,312,5.0,20.0,87,0.00,,,0.13,Wunderground v.1.15,2013-05-24 21:25:00,
2013-05-24 17:30:00,42.9,39.3,30.42,WNW,301,5.0,5.0,87,0.00,,,0.13,Wunderground v.1.15,2013-05-24 21:30:00,
2013-05-24 17:35:00,43.0,39.4,30.41,NW,313,5.0,20.0,87,0.00,,,0.13,Wunderground v.1.15,2013-05-24 21:35:00,
2013-05-24 17:40:00,43.1,39.2,30.41,NW,314,5.0,5.0,86,0.00,,,0.13,Wunderground v.1.15,2013-05-24 21:40:00,
2013-05-24 17:50:00,43.3,39.4,30.41,WNW,300,5.0,20.0,86,0.00,,,0.13,Wunderground v.1.15,2013-05-24 21:50:00,
2013-05-24 17:55:00,43.4,39.2,30.41,NW,311,4.0,20.0,85,0.00,,,0.13,Wunderground v.1.15,2013-05-24 21:55:00,
2013-05-24 18:00:00,43.5,39.3,30.41,NW,314,5.0,5.0,85,0.00,,,0.13,Wunderground v.1.15,2013-05-24 22:00:00,
2013-05-24 18:10:00,43.7,39.5,30.41,NW,321,5.0,8.0,85,0.00,,,0.13,Wunderground v.1.15,2013-05-24 22:10:00,
2013-05-24 18:15:00,43.9,39.4,30.41,NW,325,5.0,8.0,84,0.00,,,0.13,Wunderground v.1.15,2013-05-24 22:15:00,
2013-05-24 18:20:00,44.1,39.6,30.41,NW,325,5.0,8.0,84,0.00,,,0.13,Wunderground v.1.15,2013-05-24 22:20:00,
2013-05-24 18:25:00,44.4,39.9,30.41,WNW,289,4.0,8.0,84,0.00,,,0.13,Wunderground v.1.15,2013-05-24 22:25:00,
2013-05-24 18:30:00,44.5,39.7,30.41,WNW,303,4.0,5.0,83,0.00,,,0.13,Wunderground v.1.15,2013-05-24 22:30:00,
2013-05-24 18:35:00,44.6,39.4,30.41,NW,310,5.0,6.0,82,0.00,,,0.13,Wunderground v.1.15,2013-05-24 22:35:00,
2013-05-24 18:40:00,44.7,39.5,30.41,NW,326,5.0,9.0,82,0.00,,,0.13,Wunderground v.1.15,2013-05-24 22:40:00,
2013-05-24 18:50:00,45.3,40.1,30.41,NW,315,4.0,4.0,82,0.00,,,0.13,Wunderground v.1.15,2013-05-24 22:50:00,
2013-05-24 18:55:00,45.7,40.2,30.41,NW,312,5.0,6.0,81,0.00,,,0.13,Wunderground v.1.15,2013-05-24 22:55:00,
2013-05-24 19:00:00,46.1,40.3,30.41,NW,307,5.0,5.0,80,0.00,,,0.13,Wunderground v.1.15,2013-05-24 23:00:00,
2013-05-24 19:05:00,46.6,39.8,30.41,NW,309,6.0,11.0,77,0.00,,,0.13,Wunderground v.1.15,2013-05-24 23:05:00,
2013-05-24 19:10:00,47.1,39.6,30.41,WNW,302,7.0,10.0,75,0.00,,,0.13,Wunderground v.1.15,2013-05-24 23:10:00,
2013-05-24 19:15:00,47.5,39.6,30.41,NNW,333,8.0,10.0,74,0.00,,,0.13,Wunderground v.1.15,2013-05-24 23:15:00,
2013-05-24 19:25:00,47.5,38.9,30.41,NW,326,7.0,10.0,72,0.00,,,0.13,Wunderground v.1.15,2013-05-24 23:25:00,
2013-05-24 19:30:00,47.3,38.4,30.41,NW,306,7.0,7.0,71,0.00,,,0.13,Wunderground v.1.15,2013-05-24 23:30:00,
2013-05-24 19:35:00,47.2,38.6,30.41,WNW,301,7.0,9.0,72,0.00,,,0.13,Wunderground v.1.15,2013-05-24 23:35:00,
2013-05-24 19:40:00,47.2,38.3,30.41,NW,319,8.0,10.0,71,0.00,,,0.13,Wunderground v.1.15,2013-05-24 23:40:00,
2013-05-24 19:45:00,47.2,38.3,30.41,WNW,294,8.0,10.0,71,0.00,,,0.13,Wunderground v.1.15,2013-05-24 23:45:00,
2013-05-24 19:50:00,47.0,38.4,30.41,WNW,294,7.0,10.0,72,0.00,,,0.13,Wunderground v.1.15,2013-05-24 23:50:00,
2013-05-24 20:00:00,46.9,38.3,30.41,NW,311,7.0,10.0,72,0.00,,,0.13,Wunderground v.1.15,2013-05-25 00:00:00,
2013-05-24 20:05:00,46.8,38.2,30.41,WNW,298,7.0,10.0,72,0.00,,,0.13,Wunderground v.1.15,2013-05-25 00:05:00,
2013-05-24 20:10:00,46.7,38.5,30.41,NW,316,6.0,10.0,73,0.00,,,0.13,Wunderground v.1.15,2013-05-25 00:10:00,
2013-05-24 20:15:00,46.6,38.8,30.41,NW,304,6.0,10.0,74,0.00,,,0.13,Wunderground v.1.15,2013-05-25 00:15:00,
2013-05-24 20:20:00,46.6,38.8,30.41,NW,313,7.0,7.0,74,0.00,,,0.13,Wunderground v.1.15,2013-05-25 00:20:00,
2013-05-24 20:30:00,46.5,38.7,30.41,WNW,303,6.0,10.0,74,0.00,,,0.13,Wunderground v.1.15,2013-05-25 00:30:00,
2013-05-24 20:35:00,46.6,38.4,30.42,WNW,293,7.0,10.0,73,0.00,,,0.13,Wunderground v.1.15,2013-05-25 00:35:00,
2013-05-24 20:40:00,46.6,38.4,30.42,NW,315,8.0,10.0,73,0.00,,,0.13,Wunderground v.1.15,2013-05-25 00:40:00,
2013-05-24 20:45:00,46.6,38.4,30.42,NW,313,8.0,10.0,73,0.00,,,0.13,Wunderground v.1.15,2013-05-25 00:45:00,
2013-05-24 20:50:00,46.6,38.1,30.42,WNW,302,8.0,8.0,72,0.00,,,0.13,Wunderground v.1.15,2013-05-25 00:50:00,
2013-05-24 20:55:00,46.5,38.3,30.42,NNW,333,7.0,9.0,73,0.00,,,0.13,Wunderground v.1.15,2013-05-25 00:55:00,
2013-05-24 21:05:00,46.3,38.1,30.43,WNW,299,6.0,10.0,73,0.00,,,0.13,Wunderground v.1.15,2013-05-25 01:05:00,
2013-05-24 21:10:00,46.3,38.5,30.43,WNW,299,6.0,10.0,74,0.00,,,0.13,Wunderground v.1.15,2013-05-25 01:10:00,
2013-05-24 21:15:00,46.3,38.5,30.43,WNW,297,6.0,10.0,74,0.00,,,0.13,Wunderground v.1.15,2013-05-25 01:15:00,
2013-05-24 21:20:00,46.2,38.4,30.43,NW,306,6.0,6.0,74,0.00,,,0.13,Wunderground v.1.15,2013-05-25 01:20:00,
2013-05-24 21:25:00,46.2,38.4,30.43,WNW,298,6.0,10.0,74,0.00,,,0.13,Wunderground v.1.15,2013-05-25 01:25:00,
2013-05-24 21:35:00,46.1,38.3,30.43,WNW,292,7.0,10.0,74,0.00,,,0.13,Wunderground v.1.15,2013-05-25 01:35:00,
2013-05-24 21:40:00,46.1,38.3,30.43,WNW,293,7.0,10.0,74,0.00,,,0.13,Wunderground v.1.15,2013-05-25 01:40:00,
2013-05-24 21:45:00,46.1,38.3,30.43,NW,325,6.0,10.0,74,0.00,,,0.13,Wunderground v.1.15,2013-05-25 01:45:00,
2013-05-24 21:50:00,46.1,38.3,30.44,NW,312,6.0,10.0,74,0.00,,,0.13,Wunderground v.1.15,2013-05-25 01:50:00,
2013-05-24 21:55:00,46.1,38.6,30.44,NW,309,7.0,10.0,75,0.00,,,0.13,Wunderground v.1.15,2013-05-25 01:55:00,
2013-05-24 22:00:00,46.1,38.6,30.44,NW,313,6.0,6.0,75,0.00,,,0.13,Wunderground v.1.15,2013-05-25 02:00:00,
2013-05-24 22:10:00,45.9,38.4,30.44,WNW,298,5.0,5.0,75,0.00,,,0.13,Wunderground v.1.15,2013-05-25 02:10:00,
2013-05-24 22:15:00,45.9,38.4,30.44,WNW,300,6.0,7.0,75,0.00,,,0.13,Wunderground v.1.15,2013-05-25 02:15:00,
2013-05-24 22:20:00,45.9,38.8,30.44,WNW,300,7.0,7.0,76,0.00,,,0.13,Wunderground v.1.15,2013-05-25 02:20:00,
2013-05-24 22:25:00,45.8,38.7,30.44,NW,325,6.0,10.0,76,0.00,,,0.13,Wunderground v.1.15,2013-05-25 02:25:00,
2013-05-24 22:30:00,45.7,38.9,30.45,WNW,286,5.0,5.0,77,0.00,,,0.13,Wunderground v.1.15,2013-05-25 02:30:00,
2013-05-24 22:35:00,45.7,38.6,30.45,WNW,300,4.0,10.0,76,0.00,,,0.13,Wunderground v.1.15,2013-05-25 02:35:00,
2013-05-24 22:40:00,45.8,39.0,30.45,NNW,329,5.0,5.0,77,0.00,,,0.13,Wunderground v.1.15,2013-05-25 02:40:00,
2013-05-24 22:45:00,45.8,39.0,30.45,NNW,329,5.0,10.0,77,0.00,,,0.13,Wunderground v.1.15,2013-05-25 02:45:00,
2013-05-24 22:50:00,45.7,38.9,30.45,NW,317,4.0,10.0,77,0.00,,,0.13,Wunderground v.1.15,2013-05-25 02:50:00,
2013-05-24 22:55:00,45.5,39.0,30.45,WNW,301,3.0,10.0,78,0.00,,,0.13,Wunderground v.1.15,2013-05-25 02:55:00,
2013-05-24 23:00:00,45.4,38.9,30.45,WNW,298,4.0,4.0,78,0.00,,,0.13,Wunderground v.1.15,2013-05-25 03:00:00,
2013-05-24 23:10:00,45.1,39.0,30.44,NW,310,4.0,10.0,79,0.00,,,0.13,Wunderground v.1.15,2013-05-25 03:10:00,
2013-05-24 23:15:00,45.0,38.9,30.44,WNW,298,4.0,10.0,79,0.00,,,0.13,Wunderground v.1.15,2013-05-25 03:15:00,
2013-05-24 23:20:00,45.0,38.9,30.44,NW,315,5.0,10.0,79,0.00,,,0.13,Wunderground v.1.15,2013-05-25 03:20:00,
2013-05-24 23:25:00,44.9,38.8,30.44,WNW,289,6.0,10.0,79,0.00,,,0.13,Wunderground v.1.15,2013-05-25 03:25:00,
2013-05-24 23:30:00,44.8,38.7,30.45,WNW,293,5.0,5.0,79,0.00,,,0.13,Wunderground v.1.15,2013-05-25 03:30:00,
2013-05-24 23:35:00,44.8,38.7,30.45,NW,320,5.0,10.0,79,0.00,,,0.13,Wunderground v.1.15,2013-05-25 03:35:00,
2013-05-24 23:45:00,44.6,38.5,30.45,NW,304,5.0,10.0,79,0.00,,,0.13,Wunderground v.1.15,2013-05-25 03:45:00,
2013-05-24 23:50:00,44.7,38.3,30.45,NW,317,5.0,10.0,78,0.00,,,0.13,Wunderground v.1.15,2013-05-25 03:50:00,
2013-05-24 23:55:00,44.8,38.0,30.45,NW,306,5.0,10.0,77,0.00,,,0.13,Wunderground v.1.15,2013-05-25 03:55:00,